sensor_id;sensor_type;location;lat;lon;timestamp;P1;durP1;ratioP1;P2;durP2;ratioP2
52138;SDS011;38131;53.256;6.460;2022-10-26T16:53:46;11.32;;;7.88;;
52138;SDS011;38131;53.256;6.460;2022-10-26T16:56:21;15.10;;;8.02;;
52138;SDS011;38131;53.256;6.460;2022-10-26T17:02:32;11.25;;;6.35;;
52138;SDS011;38131;53.256;6.460;2022-10-26T17:08:56;16.95;;;8.32;;
52138;SDS011;38131;53.256;6.460;2022-10-26T17:12:02;16.05;;;9.20;;
52138;SDS011;38131;53.256;6.460;2022-10-26T17:17:39;24.15;;;9.93;;
52138;SDS011;38131;53.256;6.460;2022-10-26T17:26:39;18.48;;;9.55;;
52138;SDS011;38131;53.256;6.460;2022-10-26T17:32:09;15.82;;;8.35;;
52138;SDS011;38131;53.256;6.460;2022-10-26T17:35:19;10.48;;;6.82;;
52138;SDS011;38131;53.256;6.460;2022-10-26T17:38:13;11.60;;;7.32;;
52138;SDS011;38131;53.256;6.460;2022-10-26T17:51:13;36.17;;;15.82;;
52138;SDS011;38131;53.256;6.460;2022-10-26T18:05:02;14.80;;;9.10;;
52138;SDS011;38131;53.256;6.460;2022-10-26T18:07:55;17.80;;;9.93;;
52138;SDS011;38131;53.256;6.460;2022-10-26T18:10:57;16.70;;;7.65;;
52138;SDS011;38131;53.256;6.460;2022-10-26T18:19:58;9.15;;;6.63;;
52138;SDS011;38131;53.256;6.460;2022-10-26T18:32:24;11.68;;;5.82;;
52138;SDS011;38131;53.256;6.460;2022-10-26T18:35:28;11.10;;;6.35;;
52138;SDS011;38131;53.256;6.460;2022-10-26T18:37:59;11.50;;;5.57;;
52138;SDS011;38131;53.256;6.460;2022-10-26T18:40:25;6.68;;;5.65;;
52138;SDS011;38131;53.256;6.460;2022-10-26T18:46:06;9.77;;;5.55;;
52138;SDS011;38131;53.256;6.460;2022-10-26T18:54:38;14.25;;;8.48;;
52138;SDS011;38131;53.256;6.460;2022-10-26T18:57:08;10.38;;;8.20;;
52138;SDS011;38131;53.256;6.460;2022-10-26T19:02:13;13.23;;;7.80;;
52138;SDS011;38131;53.256;6.460;2022-10-26T19:04:59;15.63;;;8.75;;
52138;SDS011;38131;53.256;6.460;2022-10-26T19:07:33;18.92;;;10.88;;
52138;SDS011;38131;53.256;6.460;2022-10-26T19:10:16;14.55;;;9.73;;
52138;SDS011;38131;53.256;6.460;2022-10-26T19:12:47;20.42;;;11.52;;
52138;SDS011;38131;53.256;6.460;2022-10-26T19:16:05;18.33;;;9.85;;
52138;SDS011;38131;53.256;6.460;2022-10-26T19:40:10;10.52;;;7.53;;
52138;SDS011;38131;53.256;6.460;2022-10-26T19:42:39;18.10;;;9.55;;
52138;SDS011;38131;53.256;6.460;2022-10-26T20:11:25;15.45;;;8.88;;
52138;SDS011;38131;53.256;6.460;2022-10-26T20:13:52;15.18;;;9.43;;
52138;SDS011;38131;53.256;6.460;2022-10-26T20:16:24;18.23;;;9.57;;
52138;SDS011;38131;53.256;6.460;2022-10-26T20:18:53;15.52;;;8.40;;
52138;SDS011;38131;53.256;6.460;2022-10-26T20:21:23;13.93;;;8.85;;
52138;SDS011;38131;53.256;6.460;2022-10-26T20:23:58;13.95;;;8.13;;
52138;SDS011;38131;53.256;6.460;2022-10-26T20:26:28;14.10;;;8.10;;
52138;SDS011;38131;53.256;6.460;2022-10-26T20:28:54;15.63;;;8.70;;
52138;SDS011;38131;53.256;6.460;2022-10-26T20:31:22;11.65;;;7.57;;
52138;SDS011;38131;53.256;6.460;2022-10-26T20:33:53;13.50;;;7.40;;
52138;SDS011;38131;53.256;6.460;2022-10-26T20:36:31;17.58;;;7.65;;
52138;SDS011;38131;53.256;6.460;2022-10-26T20:38:59;15.02;;;8.30;;
52138;SDS011;38131;53.256;6.460;2022-10-26T20:41:25;15.93;;;8.90;;
52138;SDS011;38131;53.256;6.460;2022-10-26T20:47:46;13.90;;;9.30;;
52138;SDS011;38131;53.256;6.460;2022-10-26T20:50:13;14.00;;;7.93;;
52138;SDS011;38131;53.256;6.460;2022-10-26T20:55:52;15.18;;;8.68;;
52138;SDS011;38131;53.256;6.460;2022-10-26T21:01:29;13.65;;;8.45;;
52138;SDS011;38131;53.256;6.460;2022-10-26T21:07:27;15.90;;;7.75;;
52138;SDS011;38131;53.256;6.460;2022-10-26T21:10:06;11.52;;;7.60;;
52138;SDS011;38131;53.256;6.460;2022-10-26T21:12:38;13.35;;;7.88;;
52138;SDS011;38131;53.256;6.460;2022-10-26T21:15:13;13.18;;;8.73;;
52138;SDS011;38131;53.256;6.460;2022-10-26T21:17:42;14.68;;;8.27;;
52138;SDS011;38131;53.256;6.460;2022-10-26T21:22:41;10.85;;;6.13;;
52138;SDS011;38131;53.256;6.460;2022-10-26T21:25:15;9.45;;;6.15;;
52138;SDS011;38131;53.256;6.460;2022-10-26T21:27:46;8.75;;;5.88;;
52138;SDS011;38131;53.256;6.460;2022-10-26T21:30:23;11.00;;;6.15;;
52138;SDS011;38131;53.256;6.460;2022-10-26T21:32:55;15.02;;;6.50;;
52138;SDS011;38131;53.256;6.460;2022-10-26T21:35:56;6.35;;;5.65;;
52138;SDS011;38131;53.256;6.460;2022-10-26T21:38:32;7.50;;;5.60;;
52138;SDS011;38131;53.256;6.460;2022-10-26T21:41:08;14.93;;;6.28;;
52138;SDS011;38131;53.256;6.460;2022-10-26T21:43:39;11.02;;;5.90;;
52138;SDS011;38131;53.256;6.460;2022-10-26T21:46:11;12.25;;;6.20;;
52138;SDS011;38131;53.256;6.460;2022-10-26T21:48:46;15.57;;;6.10;;
52138;SDS011;38131;53.256;6.460;2022-10-26T21:51:21;10.68;;;5.88;;
52138;SDS011;38131;53.256;6.460;2022-10-26T21:53:53;12.20;;;6.20;;
52138;SDS011;38131;53.256;6.460;2022-10-26T21:56:25;7.60;;;6.00;;
52138;SDS011;38131;53.256;6.460;2022-10-26T21:58:57;12.35;;;6.05;;
52138;SDS011;38131;53.256;6.460;2022-10-26T22:01:26;10.13;;;6.00;;
52138;SDS011;38131;53.256;6.460;2022-10-26T22:03:56;14.57;;;6.05;;
52138;SDS011;38131;53.256;6.460;2022-10-26T22:06:23;9.95;;;6.05;;
52138;SDS011;38131;53.256;6.460;2022-10-26T22:08:54;8.95;;;5.63;;
52138;SDS011;38131;53.256;6.460;2022-10-26T22:11:23;14.40;;;6.38;;
52138;SDS011;38131;53.256;6.460;2022-10-26T22:13:58;10.25;;;5.15;;
52138;SDS011;38131;53.256;6.460;2022-10-26T22:19:05;10.35;;;5.63;;
52138;SDS011;38131;53.256;6.460;2022-10-26T22:21:39;10.68;;;5.15;;
52138;SDS011;38131;53.256;6.460;2022-10-26T22:24:14;11.02;;;4.88;;
52138;SDS011;38131;53.256;6.460;2022-10-26T22:26:42;7.97;;;4.40;;
52138;SDS011;38131;53.256;6.460;2022-10-26T22:31:48;4.80;;;3.95;;
52138;SDS011;38131;53.256;6.460;2022-10-26T22:34:26;9.48;;;4.05;;
52138;SDS011;38131;53.256;6.460;2022-10-26T22:36:54;12.23;;;4.47;;
52138;SDS011;38131;53.256;6.460;2022-10-26T22:39:20;13.20;;;4.70;;
52138;SDS011;38131;53.256;6.460;2022-10-26T22:41:50;13.30;;;4.40;;
52138;SDS011;38131;53.256;6.460;2022-10-26T22:44:18;10.05;;;4.72;;
52138;SDS011;38131;53.256;6.460;2022-10-26T22:46:46;9.93;;;4.07;;
52138;SDS011;38131;53.256;6.460;2022-10-26T22:49:14;9.95;;;4.00;;
52138;SDS011;38131;53.256;6.460;2022-10-26T22:51:41;10.63;;;3.58;;
52138;SDS011;38131;53.256;6.460;2022-10-26T22:54:09;9.48;;;3.47;;
52138;SDS011;38131;53.256;6.460;2022-10-26T22:56:44;10.32;;;3.38;;
52138;SDS011;38131;53.256;6.460;2022-10-26T22:59:13;7.40;;;3.20;;
52138;SDS011;38131;53.256;6.460;2022-10-26T23:01:41;12.18;;;3.58;;
52138;SDS011;38131;53.256;6.460;2022-10-26T23:04:22;11.15;;;3.70;;
52138;SDS011;38131;53.256;6.460;2022-10-26T23:06:48;9.40;;;3.38;;
52138;SDS011;38131;53.256;6.460;2022-10-26T23:09:20;10.20;;;3.50;;
52138;SDS011;38131;53.256;6.460;2022-10-26T23:11:46;16.38;;;3.63;;
52138;SDS011;38131;53.256;6.460;2022-10-26T23:14:14;6.65;;;2.78;;
52138;SDS011;38131;53.256;6.460;2022-10-26T23:16:40;12.40;;;3.42;;
52138;SDS011;38131;53.256;6.460;2022-10-26T23:19:07;8.93;;;2.65;;
52138;SDS011;38131;53.256;6.460;2022-10-26T23:21:33;11.00;;;2.90;;
52138;SDS011;38131;53.256;6.460;2022-10-26T23:24:00;12.88;;;3.38;;
52138;SDS011;38131;53.256;6.460;2022-10-26T23:26:38;8.05;;;3.00;;
52138;SDS011;38131;53.256;6.460;2022-10-26T23:29:25;8.60;;;3.03;;
52138;SDS011;38131;53.256;6.460;2022-10-26T23:31:51;10.75;;;2.67;;
52138;SDS011;38131;53.256;6.460;2022-10-26T23:34:20;4.82;;;2.08;;
52138;SDS011;38131;53.256;6.460;2022-10-26T23:36:47;12.77;;;3.00;;
52138;SDS011;38131;53.256;6.460;2022-10-26T23:41:52;9.43;;;2.90;;
52138;SDS011;38131;53.256;6.460;2022-10-26T23:44:18;5.45;;;2.40;;
52138;SDS011;38131;53.256;6.460;2022-10-26T23:46:46;10.77;;;2.65;;
52138;SDS011;38131;53.256;6.460;2022-10-26T23:49:17;14.10;;;3.03;;
52138;SDS011;38131;53.256;6.460;2022-10-26T23:51:44;10.18;;;3.10;;
52138;SDS011;38131;53.256;6.460;2022-10-26T23:54:15;12.02;;;2.80;;
52138;SDS011;38131;53.256;6.460;2022-10-26T23:56:44;6.85;;;3.20;;
52138;SDS011;38131;53.256;6.460;2022-10-26T23:59:15;10.15;;;3.70;;
